Time;durP1;ratioP1;P1;durP2;ratioP2;P2;SDS_P1;SDS_P2;PMS_P1;PMS_P2;Temp;Humidity;BMP_temperature;BMP_pressure;BME280_temperature;BME280_humidity;BME280_pressure;Samples;Min_cycle;Max_cycle;Signal;HPM_P1;HPM_P2
2023/11/17 00:02:10;;;;;;;6.43;3.75;;;;;;;;;;5083372;28;20020;-65
2023/11/17 00:04:36;;;;;;;6.10;3.60;;;;;;;;;;5083981;28;20031;-63
2023/11/17 00:07:03;;;;;;;6.75;4.22;;;;;;;;;;5083784;28;20029;-61
2023/11/17 00:09:29;;;;;;;6.95;4.05;;;;;;;;;;5079887;28;20039;-64
2023/11/17 00:11:55;;;;;;;5.35;3.17;;;;;;;;;;5079770;28;20038;-63
2023/11/17 00:14:21;;;;;;;5.65;3.33;;;;;;;;;;5080287;28;20036;-62
2023/11/17 00:16:47;;;;;;;6.20;3.70;;;;;;;;;;5079171;28;20025;-64
2023/11/17 00:19:14;;;;;;;7.20;4.30;;;;;;;;;;5062219;28;20035;-63
2023/11/17 00:21:40;;;;;;;7.50;4.80;;;;;;;;;;5079920;28;20167;-62
2023/11/17 00:24:09;;;;;;;6.88;4.10;;;;;;;;;;5082710;28;20585;-61
2023/11/17 00:26:35;;;;;;;6.90;4.10;;;;;;;;;;5080805;28;20460;-66
2023/11/17 00:29:01;;;;;;;6.30;3.80;;;;;;;;;;5080796;28;20028;-60
2023/11/17 00:31:30;;;;;;;6.70;4.28;;;;;;;;;;5082081;28;20036;-62
2023/11/17 00:33:56;;;;;;;5.75;3.40;;;;;;;;;;5082999;28;20029;-63
2023/11/17 00:36:22;;;;;;;5.85;3.45;;;;;;;;;;5082832;28;20028;-66
2023/11/17 00:38:48;;;;;;;5.40;3.20;;;;;;;;;;5082765;28;20020;-63
2023/11/17 00:41:14;;;;;;;5.43;3.22;;;;;;;;;;5081590;28;20154;-64
2023/11/17 00:43:40;;;;;;;5.45;3.22;;;;;;;;;;5081994;28;20029;-63
2023/11/17 00:46:06;;;;;;;8.23;4.85;;;;;;;;;;5082516;28;20021;-62
2023/11/17 00:48:32;;;;;;;5.50;3.22;;;;;;;;;;5082976;28;20409;-64
2023/11/17 00:50:59;;;;;;;5.47;3.20;;;;;;;;;;5081164;28;20069;-62
2023/11/17 00:53:32;;;;;;;6.35;3.97;;;;;;;;;;5082604;28;20116;-63
2023/11/17 00:55:59;;;;;;;5.20;3.03;;;;;;;;;;5065259;28;20024;-63
2023/11/17 00:58:25;;;;;;;4.50;2.70;;;;;;;;;;5064391;28;20035;-63
2023/11/17 01:00:56;;;;;;;4.57;2.75;;;;;;;;;;5081775;28;20444;-63
2023/11/17 01:03:22;;;;;;;4.68;2.80;;;;;;;;;;5083399;28;20440;-64
2023/11/17 01:05:49;;;;;;;4.35;2.60;;;;;;;;;;5082671;28;20027;-63
2023/11/17 01:08:15;;;;;;;4.10;2.50;;;;;;;;;;5082942;28;20091;-63
2023/11/17 01:10:42;;;;;;;4.82;2.83;;;;;;;;;;5081885;28;20024;-62
2023/11/17 01:13:08;;;;;;;5.05;3.00;;;;;;;;;;5081781;28;20061;-62
2023/11/17 01:15:35;;;;;;;6.18;3.80;;;;;;;;;;5064019;28;20088;-62
2023/11/17 01:18:01;;;;;;;4.47;2.67;;;;;;;;;;5082268;28;20024;-61
2023/11/17 01:20:27;;;;;;;5.80;3.60;;;;;;;;;;5063334;28;20025;-63
2023/11/17 01:22:53;;;;;;;4.30;2.53;;;;;;;;;;5082720;28;20055;-63
2023/11/17 01:25:19;;;;;;;6.07;4.60;;;;;;;;;;5067502;28;20020;-63
2023/11/17 01:27:46;;;;;;;3.95;2.40;;;;;;;;;;5068722;28;20112;-62
2023/11/17 01:30:12;;;;;;;4.30;2.55;;;;;;;;;;5067786;28;20059;-63
2023/11/17 01:32:38;;;;;;;4.40;2.60;;;;;;;;;;5087027;28;20058;-63
2023/11/17 01:35:13;;;;;;;4.75;2.80;;;;;;;;;;5087042;28;20063;-63
2023/11/17 01:37:39;;;;;;;5.32;3.20;;;;;;;;;;5086331;28;20043;-62
2023/11/17 01:40:06;;;;;;;5.30;3.10;;;;;;;;;;5085602;28;20082;-63
2023/11/17 01:42:38;;;;;;;4.90;2.90;;;;;;;;;;5086467;28;20025;-64
2023/11/17 01:45:08;;;;;;;4.60;2.80;;;;;;;;;;5085764;28;20467;-63
2023/11/17 01:47:39;;;;;;;5.28;3.10;;;;;;;;;;5068652;28;20056;-62
2023/11/17 01:50:09;;;;;;;5.00;2.90;;;;;;;;;;5068227;28;20156;-61
2023/11/17 01:52:35;;;;;;;4.93;2.92;;;;;;;;;;5085078;28;20048;-62
2023/11/17 01:55:05;;;;;;;6.22;3.65;;;;;;;;;;5065372;28;20380;-61
2023/11/17 01:57:34;;;;;;;5.25;3.15;;;;;;;;;;5083277;28;20029;-61
2023/11/17 02:00:00;;;;;;;;;;;;;;;;;;5082047;28;20364;-65
2023/11/17 02:02:27;;;;;;;6.70;4.18;;;;;;;;;;5082666;28;19911;-62
2023/11/17 02:04:53;;;;;;;5.97;3.70;;;;;;;;;;5082413;28;20177;-62
2023/11/17 02:07:23;;;;;;;5.50;3.20;;;;;;;;;;5082746;28;20028;-62
2023/11/17 02:10:09;;;;;;;5.75;3.40;;;;;;;;;;5063960;28;20025;-62
2023/11/17 02:12:51;;;;;;;5.63;3.30;;;;;;;;;;5064299;28;20024;-60
2023/11/17 02:15:21;;;;;;;5.55;3.22;;;;;;;;;;5081454;28;20032;-62
2023/11/17 02:17:51;;;;;;;7.78;6.72;;;;;;;;;;5056401;28;20043;-62
2023/11/17 02:20:20;;;;;;;5.80;3.45;;;;;;;;;;5054604;28;20072;-62
2023/11/17 02:22:50;;;;;;;5.90;3.50;;;;;;;;;;5064939;28;20511;-62
2023/11/17 02:25:21;;;;;;;5.72;3.40;;;;;;;;;;5082488;28;20039;-62
2023/11/17 02:27:57;;;;;;;6.22;3.45;;;;;;;;;;5084061;28;20478;-62
2023/11/17 02:30:26;;;;;;;5.60;3.38;;;;;;;;;;5082257;28;20024;-62
2023/11/17 02:32:55;;;;;;;5.50;3.30;;;;;;;;;;5082717;28;20046;-62
2023/11/17 02:35:28;;;;;;;6.00;3.50;;;;;;;;;;5064760;28;20028;-62
2023/11/17 02:38:07;;;;;;;6.13;3.67;;;;;;;;;;5082624;28;20379;-61
2023/11/17 02:40:37;;;;;;;7.63;4.25;;;;;;;;;;5081616;28;20029;-62
2023/11/17 02:43:07;;;;;;;7.97;4.60;;;;;;;;;;5081693;28;20041;-62
2023/11/17 02:45:36;;;;;;;5.30;3.20;;;;;;;;;;5081359;28;20021;-63
2023/11/17 02:48:03;;;;;;;5.20;3.10;;;;;;;;;;5081583;28;20413;-63
2023/11/17 02:50:38;;;;;;;5.60;3.30;;;;;;;;;;5081224;28;20031;-62
2023/11/17 02:53:17;;;;;;;5.38;3.33;;;;;;;;;;5075379;28;20035;-61
2023/11/17 02:55:44;;;;;;;5.40;3.20;;;;;;;;;;5068756;28;20036;-63
2023/11/17 02:58:10;;;;;;;5.50;3.20;;;;;;;;;;5061606;28;20021;-62
2023/11/17 03:00:36;;;;;;;6.90;3.78;;;;;;;;;;5063460;28;20029;-61
2023/11/17 03:03:03;;;;;;;5.40;3.20;;;;;;;;;;5062765;28;20028;-61
2023/11/17 03:05:29;;;;;;;5.55;3.30;;;;;;;;;;5062438;28;20516;-61
2023/11/17 03:07:55;;;;;;;5.50;3.30;;;;;;;;;;5081117;28;20028;-62
2023/11/17 03:10:22;;;;;;;5.80;3.40;;;;;;;;;;5079519;28;20025;-60
2023/11/17 03:12:50;;;;;;;6.78;3.75;;;;;;;;;;5063429;28;20020;-62
2023/11/17 03:15:15;;;;;;;5.50;3.30;;;;;;;;;;5083993;28;20433;-63
2023/11/17 03:17:41;;;;;;;6.25;3.53;;;;;;;;;;5083215;28;20036;-62
2023/11/17 03:20:14;;;;;;;5.43;3.20;;;;;;;;;;5067255;28;20029;-62
2023/11/17 03:22:46;;;;;;;5.57;3.30;;;;;;;;;;5057454;28;20051;-63
2023/11/17 03:25:15;;;;;;;6.13;3.65;;;;;;;;;;5083535;28;20024;-64
2023/11/17 03:27:43;;;;;;;5.50;3.28;;;;;;;;;;5084018;28;20037;-61
2023/11/17 03:30:09;;;;;;;5.73;3.47;;;;;;;;;;5066299;28;20473;-64
2023/11/17 03:32:36;;;;;;;5.43;3.25;;;;;;;;;;5084176;28;20017;-63
2023/11/17 03:35:03;;;;;;;5.70;3.40;;;;;;;;;;5084453;28;20116;-64
2023/11/17 03:37:29;;;;;;;7.60;6.40;;;;;;;;;;5080196;28;20060;-63
2023/11/17 03:39:55;;;;;;;5.63;3.30;;;;;;;;;;5073935;28;20021;-61
2023/11/17 03:42:21;;;;;;;6.47;4.07;;;;;;;;;;5062593;28;20024;-63
2023/11/17 03:44:52;;;;;;;7.65;4.22;;;;;;;;;;5079030;28;20079;-63
2023/11/17 03:47:18;;;;;;;6.00;3.50;;;;;;;;;;5079576;28;20562;-64
2023/11/17 03:49:44;;;;;;;6.05;3.58;;;;;;;;;;5079210;28;20032;-61
2023/11/17 03:52:14;;;;;;;5.47;3.30;;;;;;;;;;5081505;28;20035;-64
2023/11/17 03:54:40;;;;;;;5.70;3.38;;;;;;;;;;5081443;28;20025;-63
2023/11/17 03:57:12;;;;;;;6.18;3.53;;;;;;;;;;5083801;28;20103;-64
2023/11/17 03:59:38;;;;;;;6.35;3.75;;;;;;;;;;5082732;28;20024;-64
2023/11/17 04:02:05;;;;;;;5.60;3.30;;;;;;;;;;5082691;28;20032;-63
2023/11/17 04:04:31;;;;;;;5.38;3.20;;;;;;;;;;5082652;28;20062;-63
2023/11/17 04:06:57;;;;;;;5.70;3.35;;;;;;;;;;5081029;28;20028;-63
2023/11/17 04:09:24;;;;;;;5.70;3.40;;;;;;;;;;5082402;28;20568;-62
2023/11/17 04:11:51;;;;;;;5.80;3.50;;;;;;;;;;5081666;28;20021;-63
2023/11/17 04:14:18;;;;;;;6.25;3.70;;;;;;;;;;5082674;28;20032;-63
2023/11/17 04:16:46;;;;;;;5.90;3.50;;;;;;;;;;5064483;28;20032;-63
2023/11/17 04:19:14;;;;;;;7.03;4.38;;;;;;;;;;5063936;28;20097;-63
2023/11/17 04:21:40;;;;;;;6.43;3.78;;;;;;;;;;5064064;28;20035;-60
2023/11/17 04:24:06;;;;;;;6.30;3.70;;;;;;;;;;5082671;28;20025;-62
2023/11/17 04:26:34;;;;;;;6.80;4.00;;;;;;;;;;5082468;28;20035;-63
2023/11/17 04:29:00;;;;;;;6.35;3.70;;;;;;;;;;5064310;28;20530;-62
2023/11/17 04:31:26;;;;;;;6.25;3.72;;;;;;;;;;5081629;28;20050;-62
2023/11/17 04:33:54;;;;;;;6.63;3.95;;;;;;;;;;5082220;28;20332;-62
2023/11/17 04:36:21;;;;;;;6.32;3.75;;;;;;;;;;5081690;28;20070;-63
2023/11/17 04:38:47;;;;;;;6.50;3.80;;;;;;;;;;5064343;28;20032;-63
2023/11/17 04:41:13;;;;;;;6.10;3.60;;;;;;;;;;5063888;28;20055;-61
2023/11/17 04:43:39;;;;;;;6.30;3.70;;;;;;;;;;5063923;28;20449;-63
2023/11/17 04:46:06;;;;;;;6.22;3.67;;;;;;;;;;5081795;28;20017;-62
2023/11/17 04:48:32;;;;;;;6.47;3.85;;;;;;;;;;5047739;28;20036;-62
2023/11/17 04:50:59;;;;;;;6.18;3.70;;;;;;;;;;5081067;28;20398;-63
2023/11/17 04:53:25;;;;;;;6.40;3.80;;;;;;;;;;5081717;28;20025;-62
2023/11/17 04:55:52;;;;;;;6.50;3.80;;;;;;;;;;5081389;28;20024;-62
2023/11/17 04:58:18;;;;;;;6.20;3.70;;;;;;;;;;5081161;28;20111;-63
2023/11/17 05:00:46;;;;;;;6.85;4.25;;;;;;;;;;5080824;28;20016;-62
2023/11/17 05:03:12;;;;;;;6.40;3.78;;;;;;;;;;5062523;28;20035;-60
2023/11/17 05:05:38;;;;;;;6.80;4.10;;;;;;;;;;5060552;28;20036;-63
2023/11/17 05:08:04;;;;;;;6.68;3.90;;;;;;;;;;5081411;28;20028;-62
2023/11/17 05:10:30;;;;;;;6.75;3.95;;;;;;;;;;5080438;28;20127;-62
2023/11/17 05:12:56;;;;;;;9.48;8.07;;;;;;;;;;5080949;28;20210;-64
2023/11/17 05:15:22;;;;;;;6.82;4.05;;;;;;;;;;5062737;28;20069;-63
2023/11/17 05:17:48;;;;;;;6.68;4.00;;;;;;;;;;5080646;28;20085;-63
2023/11/17 05:20:15;;;;;;;6.85;4.10;;;;;;;;;;5080984;28;20017;-63
2023/11/17 05:22:42;;;;;;;7.13;4.22;;;;;;;;;;5081205;28;20483;-63
2023/11/17 05:25:09;;;;;;;7.97;5.05;;;;;;;;;;5081358;28;20036;-63
2023/11/17 05:27:36;;;;;;;8.80;5.90;;;;;;;;;;5080609;28;20493;-64
2023/11/17 05:30:04;;;;;;;8.32;5.05;;;;;;;;;;5081439;28;20108;-64
2023/11/17 05:32:30;;;;;;;10.70;8.13;;;;;;;;;;5080452;28;20024;-64
2023/11/17 05:34:56;;;;;;;7.93;4.82;;;;;;;;;;5081890;28;20042;-64
2023/11/17 05:37:23;;;;;;;7.20;4.20;;;;;;;;;;5080926;28;20486;-60
2023/11/17 05:39:49;;;;;;;7.78;4.40;;;;;;;;;;5080596;28;20085;-61
2023/11/17 05:42:15;;;;;;;7.32;4.40;;;;;;;;;;5081615;28;20029;-59
2023/11/17 05:44:42;;;;;;;7.47;4.28;;;;;;;;;;5080403;28;20075;-64
2023/11/17 05:47:08;;;;;;;6.90;4.18;;;;;;;;;;5080665;28;20032;-62
2023/11/17 05:49:41;;;;;;;7.20;4.30;;;;;;;;;;5078313;28;20150;-63
2023/11/17 05:52:07;;;;;;;7.60;4.60;;;;;;;;;;5079015;28;20040;-64
2023/11/17 05:54:33;;;;;;;7.30;4.40;;;;;;;;;;5078869;28;20398;-63
2023/11/17 05:56:59;;;;;;;6.80;4.03;;;;;;;;;;5077455;28;20067;-63
2023/11/17 05:59:25;;;;;;;7.07;4.25;;;;;;;;;;5077797;28;20055;-62
2023/11/17 06:01:51;;;;;;;7.28;4.35;;;;;;;;;;5078026;28;20073;-63
2023/11/17 06:04:17;;;;;;;7.30;4.40;;;;;;;;;;5079054;28;20402;-62
2023/11/17 06:06:43;;;;;;;7.40;4.40;;;;;;;;;;5061555;28;20123;-61
2023/11/17 06:09:12;;;;;;;9.60;6.80;;;;;;;;;;5078920;28;20041;-62
2023/11/17 06:11:40;;;;;;;7.50;4.50;;;;;;;;;;5077170;28;20085;-62
2023/11/17 06:14:07;;;;;;;7.70;4.53;;;;;;;;;;5068736;28;20043;-63
2023/11/17 06:16:33;;;;;;;9.95;6.80;;;;;;;;;;5082478;28;20434;-63
2023/11/17 06:19:00;;;;;;;7.40;4.40;;;;;;;;;;5082196;28;20024;-62
2023/11/17 06:21:26;;;;;;;7.72;4.60;;;;;;;;;;5080807;28;20051;-63
2023/11/17 06:23:52;;;;;;;7.10;4.22;;;;;;;;;;5082815;28;20036;-61
2023/11/17 06:26:18;;;;;;;7.80;4.88;;;;;;;;;;5081386;28;20106;-63
2023/11/17 06:28:44;;;;;;;7.60;4.53;;;;;;;;;;5081290;28;20033;-63
2023/11/17 06:31:11;;;;;;;7.07;4.20;;;;;;;;;;5073265;28;20070;-62
2023/11/17 06:33:37;;;;;;;11.50;10.48;;;;;;;;;;5061493;28;20506;-63
2023/11/17 06:36:04;;;;;;;7.50;4.40;;;;;;;;;;5060773;28;20044;-61
2023/11/17 06:38:31;;;;;;;9.02;4.90;;;;;;;;;;5070938;28;20068;-62
2023/11/17 06:40:59;;;;;;;8.13;4.80;;;;;;;;;;5080417;28;20466;-63
2023/11/17 06:43:25;;;;;;;8.00;4.80;;;;;;;;;;5080660;28;20134;-63
2023/11/17 06:45:52;;;;;;;8.00;4.60;;;;;;;;;;5081638;28;20467;-63
2023/11/17 06:48:19;;;;;;;6.90;4.10;;;;;;;;;;5081012;28;20490;-61
2023/11/17 06:50:45;;;;;;;7.50;4.50;;;;;;;;;;5079950;28;20024;-63
2023/11/17 06:53:12;;;;;;;7.00;4.20;;;;;;;;;;5080525;28;20024;-63
2023/11/17 06:55:38;;;;;;;7.20;4.30;;;;;;;;;;5080844;28;20025;-63
2023/11/17 06:58:05;;;;;;;6.90;4.10;;;;;;;;;;5080577;28;20036;-62
2023/11/17 07:00:32;;;;;;;7.32;4.40;;;;;;;;;;5080920;28;20088;-62
2023/11/17 07:02:58;;;;;;;6.90;4.10;;;;;;;;;;5082077;28;20340;-63
2023/11/17 07:05:24;;;;;;;7.28;4.32;;;;;;;;;;5080230;28;20039;-60
2023/11/17 07:07:57;;;;;;;11.77;9.88;;;;;;;;;;5079470;28;20048;-64
2023/11/17 07:10:25;;;;;;;6.82;4.07;;;;;;;;;;5061661;28;20039;-62
2023/11/17 07:12:51;;;;;;;6.38;3.80;;;;;;;;;;5062767;28;20078;-62
2023/11/17 07:15:17;;;;;;;7.15;4.30;;;;;;;;;;5079630;28;20025;-62
2023/11/17 07:17:44;;;;;;;7.70;4.80;;;;;;;;;;5079797;28;20032;-62
2023/11/17 07:20:11;;;;;;;7.10;4.20;;;;;;;;;;5079417;28;20021;-63
2023/11/17 07:22:41;;;;;;;6.50;3.85;;;;;;;;;;5081497;28;20024;-63
2023/11/17 07:25:07;;;;;;;7.10;4.20;;;;;;;;;;5080152;28;20017;-63
2023/11/17 07:27:33;;;;;;;6.60;3.90;;;;;;;;;;5080936;28;20041;-63
2023/11/17 07:30:00;;;;;;;7.20;4.30;;;;;;;;;;5079998;28;20116;-63
2023/11/17 07:32:26;;;;;;;6.90;4.00;;;;;;;;;;5081507;28;20546;-63
2023/11/17 07:34:52;;;;;;;7.25;4.22;;;;;;;;;;5081153;28;20398;-64
2023/11/17 07:37:18;;;;;;;7.03;4.13;;;;;;;;;;5080057;28;20025;-63
2023/11/17 07:39:44;;;;;;;7.78;5.78;;;;;;;;;;5078678;28;20016;-63
2023/11/17 07:42:10;;;;;;;7.03;4.20;;;;;;;;;;5079875;28;20024;-63
2023/11/17 07:44:38;;;;;;;7.85;4.60;;;;;;;;;;5079897;28;20029;-63
2023/11/17 07:47:04;;;;;;;8.38;5.57;;;;;;;;;;5080746;28;20032;-62
2023/11/17 07:49:30;;;;;;;6.60;3.90;;;;;;;;;;5062215;28;20028;-59
2023/11/17 07:51:57;;;;;;;6.85;4.03;;;;;;;;;;5080079;28;20033;-62
2023/11/17 07:54:23;;;;;;;8.68;4.47;;;;;;;;;;5080282;28;20482;-62
2023/11/17 07:56:50;;;;;;;6.55;3.85;;;;;;;;;;5080067;28;20050;-62
2023/11/17 07:59:19;;;;;;;6.90;4.10;;;;;;;;;;5062437;28;20085;-62
2023/11/17 08:01:46;;;;;;;6.53;3.83;;;;;;;;;;5057811;28;20064;-62
2023/11/17 08:04:12;;;;;;;6.80;4.00;;;;;;;;;;5075967;28;20254;-62
2023/11/17 08:06:39;;;;;;;6.45;3.80;;;;;;;;;;5068741;28;20029;-62
2023/11/17 08:09:09;;;;;;;6.25;3.70;;;;;;;;;;5060473;28;20300;-62
2023/11/17 08:11:35;;;;;;;9.63;5.72;;;;;;;;;;5075041;28;20078;-61
2023/11/17 08:14:05;;;;;;;18.33;9.43;;;;;;;;;;5062498;28;20128;-61
2023/11/17 08:16:31;;;;;;;6.75;4.00;;;;;;;;;;5061426;28;20033;-61
2023/11/17 08:19:00;;;;;;;7.28;4.10;;;;;;;;;;5073684;28;20045;-62
2023/11/17 08:21:27;;;;;;;7.30;4.55;;;;;;;;;;5058196;28;20032;-62
2023/11/17 08:23:53;;;;;;;7.63;4.80;;;;;;;;;;5059534;28;20478;-61
2023/11/17 08:26:19;;;;;;;6.90;4.10;;;;;;;;;;5059744;28;20025;-62
2023/11/17 08:28:48;;;;;;;6.75;4.00;;;;;;;;;;5058930;28;20032;-62
2023/11/17 08:31:17;;;;;;;8.27;6.65;;;;;;;;;;5036377;28;20035;-62
2023/11/17 08:33:44;;;;;;;6.90;4.10;;;;;;;;;;5050447;28;20093;-59
2023/11/17 08:36:11;;;;;;;7.18;4.30;;;;;;;;;;5056715;28;20039;-54
2023/11/17 08:38:43;;;;;;;7.55;4.53;;;;;;;;;;5068799;28;20028;-52
2023/11/17 08:41:12;;;;;;;7.30;4.38;;;;;;;;;;5067994;28;20024;-54
2023/11/17 08:43:38;;;;;;;8.60;5.05;;;;;;;;;;5068769;28;20094;-53
2023/11/17 08:46:08;;;;;;;7.88;4.68;;;;;;;;;;5069259;28;20067;-55
2023/11/17 08:48:37;;;;;;;8.35;4.95;;;;;;;;;;5069273;28;20071;-57
2023/11/17 08:51:03;;;;;;;8.80;5.10;;;;;;;;;;5068751;28;20024;-57
2023/11/17 08:53:29;;;;;;;7.95;4.60;;;;;;;;;;5064208;28;20442;-57
2023/11/17 08:55:56;;;;;;;8.32;4.90;;;;;;;;;;5056242;28;20108;-56
2023/11/17 08:58:22;;;;;;;8.23;4.88;;;;;;;;;;5068879;28;20032;-53
2023/11/17 09:00:51;;;;;;;7.90;4.70;;;;;;;;;;5068208;28;20074;-52
2023/11/17 09:03:17;;;;;;;8.52;5.13;;;;;;;;;;5059785;28;20479;-53
2023/11/17 09:05:43;;;;;;;8.55;5.50;;;;;;;;;;5052961;28;20047;-55
2023/11/17 09:08:10;;;;;;;8.65;5.15;;;;;;;;;;5069081;28;20112;-53
2023/11/17 09:10:37;;;;;;;8.50;5.10;;;;;;;;;;5067976;28;20442;-59
2023/11/17 09:13:06;;;;;;;10.00;5.63;;;;;;;;;;5050705;28;20107;-58
2023/11/17 09:15:38;;;;;;;8.50;5.00;;;;;;;;;;5066589;28;20032;-58
2023/11/17 09:18:04;;;;;;;9.20;6.35;;;;;;;;;;5054499;28;20505;-57
2023/11/17 09:20:30;;;;;;;8.43;5.00;;;;;;;;;;5053337;28;20149;-58
2023/11/17 09:22:56;;;;;;;7.88;4.70;;;;;;;;;;5059850;28;20100;-56
2023/11/17 09:25:26;;;;;;;8.18;4.85;;;;;;;;;;5058945;28;20025;-60
2023/11/17 09:27:56;;;;;;;8.80;5.00;;;;;;;;;;5064309;28;20025;-55
2023/11/17 09:30:23;;;;;;;8.40;4.90;;;;;;;;;;5058103;28;20045;-55
2023/11/17 09:32:50;;;;;;;8.30;4.90;;;;;;;;;;5048389;28;20044;-54
2023/11/17 09:35:16;;;;;;;8.88;5.10;;;;;;;;;;5048603;28;20036;-59
2023/11/17 09:38:11;;;;;;;10.15;6.55;;;;;;;;;;5057790;28;20028;-60
2023/11/17 09:40:37;;;;;;;8.85;4.90;;;;;;;;;;5054095;28;20036;-58
2023/11/17 09:43:03;;;;;;;10.18;5.82;;;;;;;;;;5059866;28;20035;-57
2023/11/17 09:45:32;;;;;;;8.35;4.93;;;;;;;;;;5059990;28;20025;-54
2023/11/17 09:48:01;;;;;;;8.88;5.10;;;;;;;;;;5056364;28;20516;-53
2023/11/17 09:50:27;;;;;;;10.07;5.70;;;;;;;;;;5051332;28;20083;-58
2023/11/17 09:52:54;;;;;;;11.15;6.15;;;;;;;;;;5052023;28;20048;-56
2023/11/17 09:55:27;;;;;;;10.00;5.93;;;;;;;;;;5051180;28;20116;-58
2023/11/17 09:57:54;;;;;;;8.52;5.07;;;;;;;;;;5072372;28;20028;-57
2023/11/17 10:00:21;;;;;;;13.40;7.68;;;;;;;;;;5062745;28;20135;-54
2023/11/17 10:02:54;;;;;;;9.75;5.82;;;;;;;;;;5072067;28;20437;-58
2023/11/17 10:05:24;;;;;;;12.13;7.15;;;;;;;;;;5053887;28;20016;-58
2023/11/17 10:07:52;;;;;;;9.35;5.90;;;;;;;;;;5059360;28;20048;-57
2023/11/17 10:10:19;;;;;;;8.37;4.90;;;;;;;;;;5067626;28;20056;-57
2023/11/17 10:12:48;;;;;;;14.50;7.65;;;;;;;;;;5052179;28;20393;-53
2023/11/17 10:15:15;;;;;;;8.90;5.28;;;;;;;;;;5051795;28;20017;-56
2023/11/17 10:17:42;;;;;;;9.87;6.00;;;;;;;;;;5055761;28;20363;-56
2023/11/17 10:20:17;;;;;;;10.35;6.10;;;;;;;;;;5061449;28;20278;-56
2023/11/17 10:22:49;;;;;;;13.98;7.55;;;;;;;;;;5061064;28;20059;-51
2023/11/17 10:25:18;;;;;;;12.52;6.40;;;;;;;;;;5051598;28;20588;-55
2023/11/17 10:27:45;;;;;;;10.70;6.30;;;;;;;;;;5051779;28;20508;-55
2023/11/17 10:30:11;;;;;;;9.55;5.65;;;;;;;;;;5050567;28;20108;-54
2023/11/17 10:32:39;;;;;;;9.80;5.80;;;;;;;;;;5051526;28;20032;-55
2023/11/17 10:35:34;;;;;;;10.52;6.13;;;;;;;;;;5051208;28;20157;-54
2023/11/17 10:38:04;;;;;;;11.32;6.88;;;;;;;;;;5051288;28;20032;-53
2023/11/17 10:40:35;;;;;;;10.95;6.40;;;;;;;;;;5050407;28;20503;-56
2023/11/17 10:43:02;;;;;;;10.95;6.40;;;;;;;;;;5050927;28;20032;-55
2023/11/17 10:45:28;;;;;;;11.60;6.80;;;;;;;;;;5050986;28;20113;-55
2023/11/17 10:47:54;;;;;;;11.70;6.80;;;;;;;;;;5051118;28;20082;-56
2023/11/17 10:50:20;;;;;;;11.77;6.85;;;;;;;;;;5050721;28;20047;-58
2023/11/17 10:52:47;;;;;;;15.45;9.77;;;;;;;;;;5051378;28;20629;-55
2023/11/17 10:55:14;;;;;;;12.60;7.50;;;;;;;;;;5050918;28;20028;-55
2023/11/17 10:57:41;;;;;;;12.02;7.10;;;;;;;;;;5051507;28;20041;-58
2023/11/17 11:00:21;;;;;;;12.60;7.53;;;;;;;;;;5051223;28;20021;-57
2023/11/17 11:02:47;;;;;;;14.18;9.65;;;;;;;;;;5051491;28;20032;-54
2023/11/17 11:05:13;;;;;;;12.85;7.53;;;;;;;;;;5063740;28;20025;-56
2023/11/17 11:07:45;;;;;;;13.52;8.30;;;;;;;;;;5071775;28;20092;-55
2023/11/17 11:10:15;;;;;;;12.40;7.20;;;;;;;;;;5070324;28;20024;-55
2023/11/17 11:12:41;;;;;;;11.82;6.93;;;;;;;;;;5071212;28;20043;-55
2023/11/17 11:15:14;;;;;;;14.27;8.63;;;;;;;;;;5071131;28;20140;-58
2023/11/17 11:18:12;;;;;;;13.13;7.45;;;;;;;;;;5071256;28;20089;-53
2023/11/17 11:20:38;;;;;;;12.98;7.75;;;;;;;;;;5019756;28;20039;-60
2023/11/17 11:23:05;;;;;;;14.43;9.85;;;;;;;;;;5050036;28;20193;-52
2023/11/17 11:25:31;;;;;;;14.70;9.25;;;;;;;;;;5053063;28;20021;-56
2023/11/17 11:28:07;;;;;;;13.65;8.80;;;;;;;;;;5068664;28;20020;-57
2023/11/17 11:30:36;;;;;;;18.85;9.13;;;;;;;;;;5068323;28;20025;-55
2023/11/17 11:33:03;;;;;;;13.50;8.48;;;;;;;;;;5068749;28;20035;-58
2023/11/17 11:35:29;;;;;;;14.48;9.23;;;;;;;;;;5068868;28;20028;-55
2023/11/17 11:37:55;;;;;;;11.27;6.60;;;;;;;;;;5068748;28;20085;-57
2023/11/17 11:40:22;;;;;;;15.18;9.25;;;;;;;;;;5068755;28;20024;-58
2023/11/17 11:42:49;;;;;;;16.02;9.52;;;;;;;;;;5050518;28;20030;-56
2023/11/17 11:45:16;;;;;;;12.52;7.35;;;;;;;;;;5070539;28;20505;-55
2023/11/17 11:47:49;;;;;;;17.45;8.00;;;;;;;;;;5071266;28;20024;-57
2023/11/17 11:50:20;;;;;;;12.55;7.20;;;;;;;;;;5069288;28;20032;-52
2023/11/17 11:52:53;;;;;;;12.27;7.30;;;;;;;;;;5070035;28;20047;-60
2023/11/17 11:55:21;;;;;;;12.98;7.72;;;;;;;;;;5052364;28;20033;-53
2023/11/17 11:57:58;;;;;;;13.35;8.07;;;;;;;;;;5069321;28;20051;-59
2023/11/17 12:00:24;;;;;;;12.85;7.50;;;;;;;;;;5068888;28;20381;-59
2023/11/17 12:03:01;;;;;;;13.63;8.80;;;;;;;;;;5069609;28;20024;-59
2023/11/17 12:05:33;;;;;;;13.25;8.23;;;;;;;;;;5051413;28;20058;-56
2023/11/17 12:08:02;;;;;;;12.82;7.40;;;;;;;;;;5069131;28;20085;-56
2023/11/17 12:10:41;;;;;;;13.05;7.72;;;;;;;;;;5068663;28;20457;-59
2023/11/17 12:13:07;;;;;;;15.38;10.70;;;;;;;;;;5069351;28;20096;-58
2023/11/17 12:15:33;;;;;;;13.98;8.18;;;;;;;;;;5069613;28;20487;-57
2023/11/17 12:18:00;;;;;;;14.25;9.65;;;;;;;;;;5069401;28;20025;-58
2023/11/17 12:20:27;;;;;;;13.77;9.32;;;;;;;;;;5051203;28;20103;-62
2023/11/17 12:23:00;;;;;;;13.88;8.55;;;;;;;;;;5069846;28;20425;-57
2023/11/17 12:25:30;;;;;;;13.90;8.93;;;;;;;;;;5069712;28;20386;-55
2023/11/17 12:27:58;;;;;;;15.45;10.88;;;;;;;;;;5069842;28;20028;-55
2023/11/17 12:30:24;;;;;;;14.30;9.80;;;;;;;;;;5069160;28;20027;-61
2023/11/17 12:32:51;;;;;;;13.60;8.13;;;;;;;;;;5069619;28;20031;-59
2023/11/17 12:35:20;;;;;;;18.77;9.35;;;;;;;;;;5069142;28;20553;-54
2023/11/17 12:37:47;;;;;;;13.80;8.77;;;;;;;;;;5066718;28;20817;-56
2023/11/17 12:40:14;;;;;;;20.83;9.93;;;;;;;;;;5066434;28;20491;-59
2023/11/17 12:42:40;;;;;;;13.27;8.00;;;;;;;;;;5063854;28;20071;-56
2023/11/17 12:45:10;;;;;;;14.43;8.88;;;;;;;;;;5066732;28;20028;-60
2023/11/17 12:47:36;;;;;;;13.40;8.10;;;;;;;;;;5064180;28;20481;-57
2023/11/17 12:50:05;;;;;;;13.65;8.45;;;;;;;;;;5068130;28;20104;-57
2023/11/17 12:52:32;;;;;;;13.63;8.60;;;;;;;;;;5068953;28;20055;-58
2023/11/17 12:55:08;;;;;;;17.60;15.10;;;;;;;;;;5045155;28;20052;-57
2023/11/17 12:57:37;;;;;;;13.63;8.77;;;;;;;;;;5066773;28;20090;-58
2023/11/17 13:00:12;;;;;;;15.00;8.70;;;;;;;;;;5061849;28;20498;-56
2023/11/17 13:02:40;;;;;;;13.65;8.88;;;;;;;;;;5061245;28;20040;-59
2023/11/17 13:05:07;;;;;;;14.50;10.13;;;;;;;;;;5069290;28;20020;-59
2023/11/17 13:07:33;;;;;;;13.57;8.68;;;;;;;;;;5068697;28;20033;-58
2023/11/17 13:09:59;;;;;;;14.70;9.55;;;;;;;;;;5067944;28;20024;-59
2023/11/17 13:12:25;;;;;;;15.25;10.40;;;;;;;;;;5068997;28;20051;-58
2023/11/17 13:14:53;;;;;;;13.73;9.07;;;;;;;;;;5064046;28;20106;-58
2023/11/17 13:17:20;;;;;;;13.90;9.40;;;;;;;;;;5048695;28;20021;-57
2023/11/17 13:19:46;;;;;;;17.63;10.32;;;;;;;;;;5052196;28;20581;-55
2023/11/17 13:22:12;;;;;;;18.80;10.48;;;;;;;;;;5057281;28;20028;-60
2023/11/17 13:24:38;;;;;;;13.40;8.27;;;;;;;;;;5055170;28;20149;-59
2023/11/17 13:27:07;;;;;;;13.23;8.07;;;;;;;;;;5061758;28;20033;-56
2023/11/17 13:29:37;;;;;;;13.57;8.52;;;;;;;;;;5056335;28;20024;-57
2023/11/17 13:32:04;;;;;;;13.82;9.32;;;;;;;;;;5067399;28;20085;-56
2023/11/17 13:34:30;;;;;;;13.50;8.40;;;;;;;;;;5073769;28;20456;-61
2023/11/17 13:36:58;;;;;;;13.70;9.10;;;;;;;;;;5050453;28;20120;-59
2023/11/17 13:39:26;;;;;;;13.70;9.00;;;;;;;;;;5075172;28;20119;-58
2023/11/17 13:41:53;;;;;;;13.52;8.57;;;;;;;;;;5074801;28;20482;-58
2023/11/17 13:44:23;;;;;;;13.40;8.30;;;;;;;;;;5074870;28;20028;-59
2023/11/17 13:46:50;;;;;;;13.70;9.13;;;;;;;;;;5055159;28;20067;-59
2023/11/17 13:49:16;;;;;;;16.75;11.18;;;;;;;;;;5062181;28;20488;-59
2023/11/17 13:51:43;;;;;;;13.55;8.57;;;;;;;;;;5073509;28;20108;-58
2023/11/17 13:54:09;;;;;;;13.70;8.48;;;;;;;;;;5057596;28;20040;-55
2023/11/17 13:56:39;;;;;;;14.52;8.60;;;;;;;;;;5054623;28;20025;-57
2023/11/17 13:59:10;;;;;;;13.73;9.18;;;;;;;;;;5069247;28;20634;-55
2023/11/17 14:01:36;;;;;;;13.52;8.40;;;;;;;;;;5054533;28;20368;-56
2023/11/17 14:04:06;;;;;;;14.30;8.73;;;;;;;;;;5064476;28;20017;-57
2023/11/17 14:06:33;;;;;;;13.63;8.80;;;;;;;;;;5072997;28;20040;-58
2023/11/17 14:09:00;;;;;;;13.70;9.00;;;;;;;;;;5074556;28;20043;-59
2023/11/17 14:11:26;;;;;;;15.65;10.32;;;;;;;;;;5073885;28;20048;-60
2023/11/17 14:13:52;;;;;;;14.27;8.95;;;;;;;;;;5073940;28;20031;-56
2023/11/17 14:16:24;;;;;;;13.90;9.55;;;;;;;;;;5073666;28;20110;-55
2023/11/17 14:18:52;;;;;;;13.60;8.70;;;;;;;;;;5074030;28;20078;-58
2023/11/17 14:21:19;;;;;;;13.48;8.70;;;;;;;;;;5074527;28;20047;-58
2023/11/17 14:23:45;;;;;;;13.50;8.40;;;;;;;;;;5075278;28;20573;-60
2023/11/17 14:26:11;;;;;;;13.60;8.45;;;;;;;;;;5075077;28;20083;-56
2023/11/17 14:28:37;;;;;;;13.48;8.40;;;;;;;;;;5074823;28;20548;-55
2023/11/17 14:31:07;;;;;;;14.60;9.98;;;;;;;;;;5072309;28;20072;-57
2023/11/17 14:33:33;;;;;;;15.75;11.48;;;;;;;;;;5072531;28;20112;-57
2023/11/17 14:35:59;;;;;;;14.05;9.23;;;;;;;;;;5072286;28;20029;-57
2023/11/17 14:38:27;;;;;;;13.90;9.05;;;;;;;;;;5071831;28;20036;-56
2023/11/17 14:40:53;;;;;;;16.38;8.68;;;;;;;;;;5053950;28;20448;-55
2023/11/17 14:43:19;;;;;;;23.83;13.55;;;;;;;;;;5072133;28;20031;-58